Terminal Aerodrome Forecast
Issued by NWS Sterling, VA

Current Version | Previous Version | Graphics & Text | Print | Product List | Glossary On
Versions: 1 2 3 4 5 6 7 8 9 10 11 12 13 14
000
FTUS41 KLWX 302300 RRA
TAFMRB
TAF
KMRB 302347Z 3100/3124 13005KT P6SM BKN120
     FM310800 18005KT 5SM BR OVC050
     FM311000 19005KT 3SM BR OVC050
     FM311500 21007KT 5SM BR BKN050
     FM311800 23007KT P6SM -SHRA VCTS BKN050CB=

USA.gov is the U.S. government's official web portal to all federal, state and local government web resources and services.